createdAt,value
2023-05-16T00:01:43.913Z,23.23
2023-05-16T00:04:11.646Z,23.50
2023-05-16T00:06:39.263Z,25.52
2023-05-16T00:09:06.837Z,23.35
2023-05-16T00:11:34.619Z,23.67
2023-05-16T00:14:02.363Z,22.73
2023-05-16T00:16:30.217Z,21.95
2023-05-16T00:18:58.616Z,21.70
2023-05-16T00:21:26.231Z,21.67
2023-05-16T00:23:53.757Z,21.13
2023-05-16T00:26:21.461Z,20.20
2023-05-16T00:28:48.934Z,20.10
2023-05-16T00:31:16.470Z,21.27
2023-05-16T00:33:44.213Z,20.00
2023-05-16T00:36:11.783Z,19.17
2023-05-16T00:38:39.352Z,17.85
2023-05-16T00:41:07.076Z,17.75
2023-05-16T00:43:34.686Z,17.58
2023-05-16T00:46:02.271Z,18.48
2023-05-16T00:48:29.785Z,17.60
2023-05-16T00:50:57.245Z,17.83
2023-05-16T00:53:24.753Z,16.60
2023-05-16T00:55:52.594Z,16.20
2023-05-16T00:58:20.148Z,16.33
2023-05-16T01:00:48.738Z,15.75
2023-05-16T01:03:16.827Z,15.90
2023-05-16T01:05:44.442Z,15.57
2023-05-16T01:08:11.943Z,14.80
2023-05-16T01:10:39.646Z,15.40
2023-05-16T01:13:07.182Z,15.27
2023-05-16T01:15:34.662Z,14.52
2023-05-16T01:18:02.348Z,14.02
2023-05-16T01:20:29.934Z,13.63
2023-05-16T01:22:57.444Z,13.30
2023-05-16T01:25:25.199Z,13.20
2023-05-16T01:27:52.839Z,13.02
2023-05-16T01:30:20.461Z,13.57
2023-05-16T01:32:48.090Z,12.48
2023-05-16T01:35:15.636Z,13.70
2023-05-16T01:37:43.167Z,13.20
2023-05-16T01:40:10.771Z,12.90
2023-05-16T01:42:39.003Z,12.75
2023-05-16T01:45:06.647Z,11.48
2023-05-16T01:47:34.382Z,12.43
2023-05-16T01:50:01.909Z,11.90
2023-05-16T01:52:29.515Z,13.02
2023-05-16T01:54:57.084Z,11.85
2023-05-16T01:57:24.616Z,11.82
2023-05-16T01:59:52.158Z,11.57
2023-05-16T02:02:19.981Z,11.60
2023-05-16T02:04:47.589Z,11.43
2023-05-16T02:07:15.128Z,10.82
2023-05-16T02:09:42.744Z,11.35
2023-05-16T02:12:10.287Z,11.05
2023-05-16T02:14:37.862Z,10.73
2023-05-16T02:17:05.529Z,9.95
2023-05-16T02:19:33.213Z,10.23
2023-05-16T02:22:00.715Z,9.73
2023-05-16T02:24:28.551Z,9.57
2023-05-16T02:26:56.115Z,10.57
2023-05-16T02:29:23.665Z,10.82
2023-05-16T02:31:51.407Z,9.15
2023-05-16T02:34:18.915Z,9.40
2023-05-16T02:36:46.444Z,9.90
2023-05-16T02:39:14.020Z,10.13
2023-05-16T02:41:41.520Z,9.80
2023-05-16T02:44:09.202Z,9.55
2023-05-16T02:46:36.999Z,9.18
2023-05-16T02:49:04.637Z,9.30
2023-05-16T02:51:32.116Z,8.85
2023-05-16T02:53:59.908Z,8.57
2023-05-16T02:56:27.710Z,9.32
2023-05-16T02:58:55.249Z,9.30
2023-05-16T03:01:23.209Z,8.98
2023-05-16T03:03:51.236Z,8.70
2023-05-16T03:06:18.855Z,12.38
2023-05-16T03:08:47.342Z,11.65
2023-05-16T03:11:14.882Z,9.93
2023-05-16T03:13:42.342Z,10.00
2023-05-16T03:16:10.104Z,10.23
2023-05-16T03:18:37.701Z,8.75
2023-05-16T03:21:06.074Z,8.73
2023-05-16T03:23:33.642Z,10.38
2023-05-16T03:26:01.213Z,8.55
2023-05-16T03:28:28.790Z,8.75
2023-05-16T03:30:56.621Z,8.90
2023-05-16T03:33:24.157Z,8.27
2023-05-16T03:35:51.727Z,8.60
2023-05-16T03:38:19.456Z,8.35
2023-05-16T03:40:47.350Z,9.05
2023-05-16T03:43:14.857Z,8.32
2023-05-16T03:45:42.487Z,9.20
2023-05-16T03:48:10.198Z,8.20
2023-05-16T03:50:39.458Z,8.45
2023-05-16T03:53:08.466Z,7.90
2023-05-16T03:55:36.041Z,9.05
2023-05-16T03:58:03.610Z,8.30
2023-05-16T04:00:32.657Z,7.85
2023-05-16T04:03:00.315Z,8.40
2023-05-16T04:05:28.105Z,8.40
2023-05-16T04:07:55.809Z,8.98
2023-05-16T04:10:23.478Z,7.78
2023-05-16T04:12:51.418Z,7.43
2023-05-16T04:15:19.269Z,8.30
2023-05-16T04:17:47.022Z,8.35
2023-05-16T04:20:14.640Z,8.05
2023-05-16T04:22:42.265Z,7.97
2023-05-16T04:25:10.017Z,7.95
2023-05-16T04:27:37.761Z,8.00
2023-05-16T04:30:05.993Z,7.95
2023-05-16T04:32:33.736Z,8.40
2023-05-16T04:35:01.357Z,8.68
2023-05-16T04:37:29.023Z,7.85
2023-05-16T04:39:56.593Z,8.27
2023-05-16T04:42:24.099Z,8.38
2023-05-16T04:44:51.627Z,8.07
2023-05-16T04:47:19.221Z,8.07
2023-05-16T04:49:47.054Z,7.90
2023-05-16T04:52:14.652Z,7.75
2023-05-16T04:54:42.238Z,9.13
2023-05-16T04:57:09.823Z,7.80
2023-05-16T04:59:37.572Z,8.80
2023-05-16T05:02:05.171Z,8.93
2023-05-16T05:04:34.584Z,7.95
2023-05-16T05:07:02.436Z,7.65
2023-05-16T05:09:30.064Z,8.18
2023-05-16T05:11:57.631Z,8.10
2023-05-16T05:14:25.437Z,8.43
2023-05-16T05:16:52.985Z,7.65
2023-05-16T05:19:20.643Z,8.25
2023-05-16T05:21:48.268Z,8.38
2023-05-16T05:24:15.834Z,8.65
2023-05-16T05:26:43.350Z,7.85
2023-05-16T05:29:11.105Z,8.48
2023-05-16T05:31:38.665Z,8.50
2023-05-16T05:34:06.227Z,8.52
2023-05-16T05:36:34.063Z,8.40
2023-05-16T05:39:01.561Z,7.53
2023-05-16T05:41:29.161Z,9.00
2023-05-16T05:43:57.425Z,8.35
2023-05-16T05:46:25.062Z,7.78
2023-05-16T05:48:52.667Z,8.77
2023-05-16T05:51:20.254Z,8.38
2023-05-16T05:53:47.787Z,7.88
2023-05-16T05:56:15.562Z,7.95
2023-05-16T05:58:43.268Z,8.20
2023-05-16T06:01:10.829Z,7.75
2023-05-16T06:03:38.601Z,7.70
2023-05-16T06:06:06.451Z,8.40
2023-05-16T06:08:34.104Z,7.70
2023-05-16T06:11:01.638Z,7.85
2023-05-16T06:13:29.330Z,8.23
2023-05-16T06:15:57.154Z,7.70
2023-05-16T06:18:24.665Z,7.60
2023-05-16T06:20:52.470Z,8.10
2023-05-16T06:23:21.354Z,7.90
2023-05-16T06:25:49.431Z,7.45
2023-05-16T06:28:16.976Z,8.23
2023-05-16T06:30:44.560Z,8.15
2023-05-16T06:33:12.058Z,8.23
2023-05-16T06:35:39.796Z,7.28
2023-05-16T06:38:07.411Z,8.32
2023-05-16T06:40:35.241Z,8.25
2023-05-16T06:43:03.108Z,8.18
2023-05-16T06:45:31.120Z,8.52
2023-05-16T06:47:59.091Z,9.73
2023-05-16T06:50:26.856Z,8.05
2023-05-16T06:52:54.449Z,8.95
2023-05-16T06:55:22.090Z,7.53
2023-05-16T06:57:52.484Z,8.02
2023-05-16T07:00:20.087Z,7.38
2023-05-16T07:02:48.098Z,7.75
2023-05-16T07:05:15.724Z,7.82
2023-05-16T07:07:43.346Z,8.52
2023-05-16T07:10:10.905Z,8.38
2023-05-16T07:12:38.971Z,8.23
2023-05-16T07:15:06.827Z,7.82
2023-05-16T07:17:34.455Z,8.05
2023-05-16T07:20:03.654Z,8.65
2023-05-16T07:22:33.015Z,7.78
2023-05-16T07:25:00.619Z,7.90
2023-05-16T07:27:28.328Z,7.90
2023-05-16T07:29:55.920Z,7.97
2023-05-16T07:32:23.529Z,8.20
2023-05-16T07:34:51.228Z,8.18
2023-05-16T07:37:18.860Z,8.43
2023-05-16T07:39:46.383Z,9.07
2023-05-16T07:42:13.947Z,8.05
2023-05-16T07:44:41.487Z,9.30
2023-05-16T07:47:09.091Z,9.40
2023-05-16T07:49:36.775Z,9.40
2023-05-16T07:52:04.377Z,9.43
2023-05-16T07:54:32.422Z,9.32
2023-05-16T07:57:00.787Z,9.75
2023-05-16T07:59:28.342Z,9.90
2023-05-16T08:01:55.972Z,8.88
2023-05-16T08:04:23.834Z,7.55
2023-05-16T08:06:51.445Z,7.75
2023-05-16T08:09:19.031Z,7.90
2023-05-16T08:11:46.627Z,7.70
2023-05-16T08:14:14.250Z,7.82
2023-05-16T08:16:41.947Z,8.00
2023-05-16T08:19:09.852Z,7.68
2023-05-16T08:21:37.463Z,7.88
2023-05-16T08:24:05.185Z,7.82
2023-05-16T08:26:32.989Z,7.55
2023-05-16T08:29:00.873Z,7.78
2023-05-16T08:31:28.533Z,7.70
2023-05-16T08:33:56.358Z,7.68
2023-05-16T08:36:24.178Z,8.18
2023-05-16T08:38:51.794Z,7.55
2023-05-16T08:41:19.531Z,7.95
2023-05-16T08:43:47.140Z,7.95
2023-05-16T08:46:14.801Z,7.65
2023-05-16T08:48:42.525Z,6.72
2023-05-16T08:51:10.234Z,7.38
2023-05-16T08:53:38.175Z,7.10
2023-05-16T08:56:05.955Z,7.72
2023-05-16T08:58:33.550Z,7.78
2023-05-16T09:01:01.208Z,7.53
2023-05-16T09:03:29.088Z,8.00
2023-05-16T09:05:56.934Z,7.65
2023-05-16T09:08:24.616Z,8.30
2023-05-16T09:10:52.323Z,7.45
2023-05-16T09:13:19.887Z,7.25
2023-05-16T09:15:47.446Z,7.07
2023-05-16T09:18:16.707Z,8.10
2023-05-16T09:20:44.298Z,6.97
2023-05-16T09:23:12.051Z,7.95
2023-05-16T09:25:39.840Z,7.15
2023-05-16T09:28:07.391Z,7.40
2023-05-16T09:30:35.311Z,7.88
2023-05-16T09:33:03.415Z,7.47
2023-05-16T09:38:01.501Z,7.90
2023-05-16T09:40:29.158Z,8.25
2023-05-16T09:42:56.739Z,8.13
2023-05-16T09:45:24.442Z,6.93
2023-05-16T09:47:52.168Z,7.82
2023-05-16T09:50:19.874Z,7.72
2023-05-16T09:52:47.560Z,7.90
2023-05-16T09:55:15.296Z,6.63
2023-05-16T09:57:42.925Z,6.97
2023-05-16T10:00:10.828Z,6.85
2023-05-16T10:02:38.607Z,7.03
2023-05-16T10:05:06.223Z,8.00
2023-05-16T10:07:33.915Z,7.30
2023-05-16T10:10:01.605Z,7.50
2023-05-16T10:12:29.184Z,7.18
2023-05-16T10:14:56.748Z,8.18
2023-05-16T10:17:24.440Z,7.95
2023-05-16T10:19:52.447Z,7.75
2023-05-16T10:22:19.980Z,8.18
2023-05-16T10:24:47.588Z,8.38
2023-05-16T10:27:15.850Z,8.10
2023-05-16T10:29:54.026Z,7.80
2023-05-16T10:32:23.659Z,8.40
2023-05-16T10:34:51.354Z,8.40
2023-05-16T10:37:18.945Z,8.23
2023-05-16T10:39:47.126Z,8.07
2023-05-16T10:42:14.744Z,8.27
2023-05-16T10:44:48.583Z,7.82
2023-05-16T10:47:22.695Z,8.10
2023-05-16T10:49:50.274Z,8.07
2023-05-16T10:52:17.876Z,8.45
2023-05-16T10:54:45.598Z,8.40
2023-05-16T10:57:13.173Z,7.90
2023-05-16T10:59:40.778Z,7.78
2023-05-16T11:02:08.435Z,8.02
2023-05-16T11:04:36.006Z,8.07
2023-05-16T11:07:03.707Z,8.18
2023-05-16T11:09:32.531Z,8.80
2023-05-16T11:12:00.160Z,8.45
2023-05-16T11:14:27.775Z,9.10
2023-05-16T11:16:55.650Z,8.90
2023-05-16T11:19:23.428Z,8.52
2023-05-16T11:21:51.240Z,9.13
2023-05-16T11:24:20.920Z,8.63
2023-05-16T11:26:51.532Z,8.48
2023-05-16T11:29:19.199Z,8.55
2023-05-16T11:31:47.220Z,8.57
2023-05-16T11:34:14.920Z,9.05
2023-05-16T11:36:42.488Z,8.77
2023-05-16T11:39:10.188Z,9.25
2023-05-16T11:41:37.822Z,9.30
2023-05-16T11:44:05.544Z,9.55
2023-05-16T11:46:33.197Z,9.18
2023-05-16T11:49:00.817Z,8.80
2023-05-16T11:51:28.578Z,9.50
2023-05-16T11:53:56.190Z,10.20
2023-05-16T11:56:23.699Z,9.65
2023-05-16T11:58:51.483Z,9.90
2023-05-16T12:01:19.076Z,9.15
2023-05-16T12:03:46.862Z,9.90
2023-05-16T12:06:14.804Z,9.73
2023-05-16T12:08:42.358Z,10.30
2023-05-16T12:11:09.973Z,9.90
2023-05-16T12:13:37.603Z,10.57
2023-05-16T12:16:05.244Z,10.65
2023-05-16T12:18:33.761Z,10.95
2023-05-16T12:21:01.466Z,11.38
2023-05-16T12:23:29.398Z,10.63
2023-05-16T12:25:57.086Z,10.32
2023-05-16T12:28:24.642Z,10.98
2023-05-16T12:30:52.179Z,10.73
2023-05-16T12:33:19.808Z,10.38
2023-05-16T12:35:47.550Z,10.85
2023-05-16T12:38:15.172Z,11.07
2023-05-16T12:40:42.702Z,9.95
2023-05-16T12:43:10.353Z,10.88
2023-05-16T12:45:38.081Z,10.73
2023-05-16T12:48:05.719Z,9.75
2023-05-16T12:50:33.452Z,10.95
2023-05-16T12:53:01.066Z,10.82
2023-05-16T12:55:28.692Z,10.75
2023-05-16T12:57:56.448Z,10.82
2023-05-16T13:00:24.066Z,10.30
2023-05-16T13:02:52.338Z,10.48
2023-05-16T13:05:20.259Z,10.07
2023-05-16T13:07:47.960Z,11.73
2023-05-16T13:10:15.489Z,18.17
2023-05-16T13:12:43.496Z,12.30
2023-05-16T13:15:11.059Z,12.25
2023-05-16T13:17:38.711Z,11.52
2023-05-16T13:20:06.363Z,11.85
2023-05-16T13:22:33.997Z,10.65
2023-05-16T13:25:01.621Z,11.05
2023-05-16T13:27:29.361Z,10.32
2023-05-16T13:29:56.974Z,10.77
2023-05-16T13:32:24.501Z,11.23
2023-05-16T13:34:52.161Z,10.63
2023-05-16T13:37:19.747Z,10.18
2023-05-16T13:39:47.242Z,10.35
2023-05-16T13:42:15.320Z,10.25
2023-05-16T13:44:42.879Z,10.45
2023-05-16T13:47:10.615Z,10.43
2023-05-16T13:49:38.382Z,10.50
2023-05-16T13:52:06.141Z,9.98
2023-05-16T13:54:33.736Z,10.98
2023-05-16T13:57:01.383Z,11.60
2023-05-16T13:59:48.821Z,11.38
2023-05-16T14:02:16.607Z,11.10
2023-05-16T14:04:46.045Z,11.45
2023-05-16T14:07:14.369Z,13.25
2023-05-16T14:09:42.331Z,13.48
2023-05-16T14:12:10.592Z,11.98
2023-05-16T14:14:38.182Z,11.43
2023-05-16T14:17:06.030Z,11.48
2023-05-16T14:19:33.734Z,10.98
2023-05-16T14:22:01.392Z,11.35
2023-05-16T14:24:29.292Z,11.20
2023-05-16T14:26:56.923Z,10.82
2023-05-16T14:29:24.496Z,10.93
2023-05-16T14:31:52.300Z,11.38
2023-05-16T14:34:19.934Z,10.30
2023-05-16T14:36:47.631Z,10.60
2023-05-16T14:39:15.397Z,10.55
2023-05-16T14:41:42.932Z,10.55
2023-05-16T14:44:10.517Z,10.75
2023-05-16T14:46:38.159Z,11.45
2023-05-16T14:49:05.865Z,10.77
2023-05-16T14:51:33.492Z,11.43
2023-05-16T14:54:01.077Z,12.75
2023-05-16T14:56:28.653Z,11.15
2023-05-16T14:58:56.271Z,13.07
2023-05-16T15:01:24.095Z,11.48
2023-05-16T15:03:56.073Z,11.65
2023-05-16T15:06:24.143Z,12.55
2023-05-16T15:08:51.774Z,11.40
2023-05-16T15:11:19.407Z,12.07
2023-05-16T15:13:47.268Z,11.80
2023-05-16T15:16:14.908Z,11.10
2023-05-16T15:18:43.324Z,11.88
2023-05-16T15:21:10.966Z,11.40
2023-05-16T15:23:38.529Z,11.60
2023-05-16T15:26:06.185Z,11.98
2023-05-16T15:28:33.862Z,11.38
2023-05-16T15:31:01.510Z,11.98
2023-05-16T15:33:29.126Z,11.38
2023-05-16T15:35:56.938Z,12.45
2023-05-16T15:38:24.532Z,11.55
2023-05-16T15:41:01.550Z,12.57
2023-05-16T15:43:33.920Z,12.25
2023-05-16T15:46:01.533Z,11.75
2023-05-16T15:48:29.172Z,12.30
2023-05-16T15:50:56.967Z,12.77
2023-05-16T15:53:24.533Z,12.60
2023-05-16T15:55:52.159Z,12.82
2023-05-16T15:58:21.986Z,13.35
2023-05-16T16:00:50.471Z,12.77
2023-05-16T16:03:18.196Z,12.15
2023-05-16T16:05:45.876Z,12.60
2023-05-16T16:08:13.587Z,13.48
2023-05-16T16:10:41.186Z,12.88
2023-05-16T16:13:08.875Z,12.27
2023-05-16T16:15:36.688Z,13.27
2023-05-16T16:18:04.488Z,13.32
2023-05-16T16:20:32.273Z,12.77
2023-05-16T16:23:00.577Z,12.85
2023-05-16T16:25:28.542Z,12.98
2023-05-16T16:27:57.013Z,12.98
2023-05-16T16:30:24.612Z,13.30
2023-05-16T16:32:52.409Z,12.77
2023-05-16T16:35:20.233Z,13.75
2023-05-16T16:38:02.012Z,13.98
2023-05-16T16:40:33.638Z,14.57
2023-05-16T16:43:01.263Z,13.65
2023-05-16T16:45:29.149Z,13.52
2023-05-16T16:47:57.922Z,13.48
2023-05-16T16:50:25.658Z,14.15
2023-05-16T16:52:53.756Z,12.82
2023-05-16T16:55:21.451Z,13.98
2023-05-16T16:57:49.023Z,13.45
2023-05-16T17:00:16.684Z,13.73
2023-05-16T17:02:44.684Z,14.18
2023-05-16T17:05:12.372Z,14.02
2023-05-16T17:07:40.053Z,13.18
2023-05-16T17:10:07.698Z,13.65
2023-05-16T17:12:35.261Z,13.30
2023-05-16T17:15:02.957Z,13.45
2023-05-16T17:17:31.224Z,13.65
2023-05-16T17:19:58.885Z,13.07
2023-05-16T17:22:26.445Z,13.30
2023-05-16T17:24:54.263Z,14.27
2023-05-16T17:27:21.791Z,13.60
2023-05-16T17:29:49.398Z,13.48
2023-05-16T17:32:17.327Z,13.65
2023-05-16T17:34:44.958Z,14.75
2023-05-16T17:37:12.712Z,13.98
2023-05-16T17:39:40.325Z,13.43
2023-05-16T17:42:07.914Z,13.32
2023-05-16T17:44:35.484Z,13.55
2023-05-16T17:47:03.250Z,13.43
2023-05-16T17:49:30.914Z,13.70
2023-05-16T17:51:58.613Z,13.52
2023-05-16T17:54:26.710Z,13.23
2023-05-16T17:56:54.457Z,14.05
2023-05-16T17:59:22.086Z,13.32
2023-05-16T18:01:49.881Z,14.00
2023-05-16T18:04:25.098Z,13.23
2023-05-16T18:06:53.611Z,13.10
2023-05-16T18:09:22.312Z,12.57
2023-05-16T18:11:50.697Z,13.25
2023-05-16T18:14:20.690Z,13.65
2023-05-16T18:16:48.413Z,12.77
2023-05-16T18:19:16.756Z,12.55
2023-05-16T18:21:44.608Z,13.45
2023-05-16T18:24:12.267Z,13.23
2023-05-16T18:26:40.112Z,13.45
2023-05-16T18:29:08.199Z,11.63
2023-05-16T18:31:35.933Z,12.48
2023-05-16T18:34:03.559Z,12.55
2023-05-16T18:36:31.310Z,11.60
2023-05-16T18:38:58.925Z,11.40
2023-05-16T18:41:26.581Z,11.98
2023-05-16T18:43:54.224Z,13.00
2023-05-16T18:46:21.868Z,11.80
2023-05-16T18:48:49.550Z,12.20
2023-05-16T18:51:17.229Z,12.80
2023-05-16T18:53:44.807Z,12.43
2023-05-16T18:56:12.758Z,11.90
2023-05-16T18:58:40.516Z,13.18
2023-05-16T19:01:08.121Z,12.45
2023-05-16T19:03:36.068Z,11.80
2023-05-16T19:06:03.959Z,12.23
2023-05-16T19:08:40.677Z,12.73
2023-05-16T19:11:15.613Z,12.95
2023-05-16T19:13:43.206Z,11.82
2023-05-16T19:16:10.847Z,12.10
2023-05-16T19:18:38.798Z,12.48
2023-05-16T19:21:06.731Z,12.32
2023-05-16T19:23:34.365Z,12.15
2023-05-16T19:26:02.452Z,12.65
2023-05-16T19:28:30.037Z,12.68
2023-05-16T19:30:57.777Z,12.68
2023-05-16T19:33:25.530Z,11.93
2023-05-16T19:35:53.187Z,11.60
2023-05-16T19:38:20.829Z,12.13
2023-05-16T19:40:48.601Z,11.48
2023-05-16T19:43:16.228Z,11.82
2023-05-16T19:45:43.855Z,11.88
2023-05-16T19:48:11.839Z,12.25
2023-05-16T19:50:39.472Z,11.45
2023-05-16T19:53:07.128Z,11.43
2023-05-16T19:55:35.787Z,11.38
2023-05-16T19:58:04.292Z,11.73
2023-05-16T20:00:32.150Z,11.20
2023-05-16T20:03:00.117Z,11.82
2023-05-16T20:05:27.990Z,11.32
2023-05-16T20:07:55.771Z,12.05
2023-05-16T20:10:23.502Z,12.77
2023-05-16T20:12:51.159Z,12.00
2023-05-16T20:15:18.820Z,12.43
2023-05-16T20:17:50.651Z,13.25
2023-05-16T20:20:19.011Z,12.55
2023-05-16T20:22:46.974Z,12.00
2023-05-16T20:25:14.838Z,12.52
2023-05-16T20:27:42.526Z,14.77
2023-05-16T20:30:10.099Z,16.10
2023-05-16T20:32:38.351Z,15.07
2023-05-16T20:35:06.027Z,19.33
2023-05-16T20:37:34.151Z,16.30
2023-05-16T20:40:01.803Z,18.38
2023-05-16T20:42:30.448Z,15.38
2023-05-16T20:44:58.036Z,13.43
2023-05-16T20:47:25.782Z,14.05
2023-05-16T20:49:53.410Z,13.68
2023-05-16T20:52:22.072Z,13.40
2023-05-16T20:54:49.780Z,12.80
2023-05-16T20:57:17.446Z,13.52
2023-05-16T20:59:45.222Z,13.15
2023-05-16T21:02:12.840Z,12.68
2023-05-16T21:04:40.464Z,13.27
2023-05-16T21:07:08.672Z,13.38
2023-05-16T21:09:36.731Z,12.27
2023-05-16T21:12:04.375Z,13.48
2023-05-16T21:14:32.156Z,13.32
2023-05-16T21:16:59.869Z,13.68
2023-05-16T21:19:27.797Z,13.13
2023-05-16T21:21:55.596Z,13.75
2023-05-16T21:24:23.321Z,13.73
2023-05-16T21:26:50.989Z,13.70
2023-05-16T21:29:18.708Z,14.60
2023-05-16T21:31:46.449Z,15.07
2023-05-16T21:34:14.078Z,13.98
2023-05-16T21:36:41.763Z,14.15
2023-05-16T21:39:09.495Z,13.57
2023-05-16T21:41:37.185Z,14.70
2023-05-16T21:44:04.919Z,13.88
2023-05-16T21:46:33.184Z,14.80
2023-05-16T21:49:00.900Z,14.60
2023-05-16T21:51:28.626Z,14.40
2023-05-16T21:53:56.417Z,14.60
2023-05-16T21:56:24.021Z,14.90
2023-05-16T21:58:51.652Z,15.23
2023-05-16T22:01:19.840Z,14.30
2023-05-16T22:03:47.606Z,43.35
2023-05-16T22:06:15.439Z,24.33
2023-05-16T22:08:43.409Z,25.77
2023-05-16T22:11:11.145Z,24.45
2023-05-16T22:13:38.808Z,23.13
2023-05-16T22:16:06.671Z,22.65
2023-05-16T22:18:34.476Z,45.08
2023-05-16T22:21:02.271Z,36.30
2023-05-16T22:23:30.455Z,28.15
2023-05-16T22:25:58.080Z,21.45
2023-05-16T22:28:25.881Z,18.73
2023-05-16T22:30:53.573Z,18.50
2023-05-16T22:33:21.320Z,19.30
2023-05-16T22:35:49.118Z,18.08
2023-05-16T22:38:16.771Z,20.15
2023-05-16T22:40:44.340Z,23.50
2023-05-16T22:43:12.101Z,22.95
2023-05-16T22:45:39.739Z,23.77
2023-05-16T22:48:07.423Z,26.08
2023-05-16T22:50:35.109Z,23.75
2023-05-16T22:53:02.748Z,21.33
2023-05-16T22:55:30.742Z,19.00
2023-05-16T22:57:58.616Z,19.20
2023-05-16T23:00:26.277Z,19.60
2023-05-16T23:02:54.074Z,17.85
2023-05-16T23:05:22.122Z,18.17
2023-05-16T23:07:50.094Z,18.38
2023-05-16T23:10:17.753Z,18.55
2023-05-16T23:12:45.377Z,17.58
2023-05-16T23:15:13.187Z,16.58
2023-05-16T23:17:40.978Z,17.80
2023-05-16T23:20:08.675Z,17.67
2023-05-16T23:22:36.472Z,18.40
2023-05-16T23:25:04.120Z,18.23
2023-05-16T23:27:31.937Z,18.65
2023-05-16T23:29:59.756Z,20.00
2023-05-16T23:32:28.166Z,20.30
2023-05-16T23:34:57.676Z,19.45
2023-05-16T23:37:25.355Z,19.30
2023-05-16T23:39:53.009Z,19.40
2023-05-16T23:42:20.971Z,18.40
2023-05-16T23:44:48.827Z,18.80
2023-05-16T23:47:16.403Z,19.15
2023-05-16T23:49:44.110Z,18.42
2023-05-16T23:52:11.790Z,18.55
2023-05-16T23:54:39.437Z,18.80
2023-05-16T23:57:07.026Z,18.77
2023-05-16T23:59:35.105Z,16.35
